This is the latest recevied weather packets stored in our database for station/object KB2AHZ. If no packets are shown the sender has not sent any weather packets the latest 10 day(s).
| Time | Temp. | Humidity | Pressure | Rain* | Wind** | Luminosity | Snow |
|---|---|---|---|---|---|---|---|
| 1777734103 | 12.78° C | 76% | 1014.7 hPa | 0 mm | - | 235 W/m² | - |
| 1777733800 | 13.33° C | 78% | 1014.8 hPa | 0 mm | - | 220 W/m² | - |
| 1777733497 | 13.33° C | 78% | 1014.9 hPa | 0 mm | - | 212 W/m² | - |
| 1777733192 | 13.33° C | 79% | 1014.5 hPa | 0 mm | - | 285 W/m² | - |
| 1777732890 | 13.33° C | 78% | 1014.2 hPa | 0 mm | - | 320 W/m² | - |
| 1777732586 | 12.78° C | 79% | 1014.1 hPa | 0 mm | - | 282 W/m² | - |
| 1777732284 | 12.78° C | 79% | 1014.5 hPa | 0 mm | - | 218 W/m² | - |
| 1777731981 | 12.78° C | 81% | 1014.5 hPa | 0 mm | - | 223 W/m² | - |
| 1777731678 | 12.78° C | 80% | 1014.6 hPa | 0 mm | - | 200 W/m² | - |
| 1777731375 | 12.78° C | 81% | 1014.7 hPa | 0 mm | - | 159 W/m² | - |
| 1777731073 | 12.78° C | 83% | 1014.6 hPa | 0 mm | - | 167 W/m² | - |
| 1777730771 | 12.22° C | 82% | 1014.3 hPa | 0 mm | - | 151 W/m² | - |
| 1777730467 | 12.22° C | 82% | 1014.5 hPa | 0 mm | - | 109 W/m² | - |
| 1777730163 | 12.22° C | 82% | 1014.7 hPa | 0 mm | - | 86 W/m² | - |
| 1777729860 | 12.22° C | 82% | 1014.5 hPa | 0 mm | - | 92 W/m² | - |
| 1777729556 | 12.22° C | 81% | 1014.3 hPa | 0 mm | - | 124 W/m² | - |
| 1777729253 | 12.22° C | 84% | 1014.2 hPa | 0 mm | - | 125 W/m² | - |
| 1777728950 | 12.22° C | 84% | 1014.3 hPa | 0 mm | - | 124 W/m² | - |
| 1777728647 | 12.22° C | 85% | 1014.1 hPa | 0 mm | - | 147 W/m² | - |
| 1777728344 | 12.22° C | 85% | 1014.1 hPa | 0 mm | - | 143 W/m² | - |
| 1777728041 | 12.22° C | 86% | 1014 hPa | 0 mm | - | 115 W/m² | - |
| 1777727738 | 11.67° C | 87% | 1013.9 hPa | 0 mm | - | 108 W/m² | - |
| 1777727434 | 11.67° C | 87% | 1014 hPa | 0 mm | - | 101 W/m² | - |
| 1777727132 | 11.67° C | 87% | 1013.8 hPa | 0 mm | - | 78 W/m² | - |
| 1777726830 | 11.67° C | 88% | 1014.2 hPa | 0 mm | - | 58 W/m² | - |
* Rain latest hour (hover to see other rain measurements)
** Current wind speed in m/s (hover to see current wind gust speed)